• Join FlightAware (Why Join?)
  • Login
  • US Flag 
08:22PM EDT


 

Airport Tracker/Info


-or-


 

Live Flight TrackerFlight Track Log ✈ ABX102 ✈ 28-Jun-2013 ✈ KDFW - KCVG

Flight Track Log - Related Links

Times and Time Zones

All times are in EDT time to prevent confusion due to time zone crossing. See the ABX102 flight status page for this flight to view local times or setup timezone preferences in your user account.

Time Position Orientation Groundspeed Altitude Reporting Facility
EDT Latitude Longitude Course Direction KTS MPH feet Rate Location/Type
12:34AM 32.9167 -97.0500 360° North 146 168 1,300  Level Dallas / Fort Worth TRACON
12:35AM 32.9667 -97.0500 360° North 193 222 2,500 1,560 Climbing Dallas / Fort Worth TRACON
12:36AM 33.0000 -97.0167 40° Northeast 231 266 4,500 2,220 Climbing Dallas / Fort Worth TRACON
12:38AM 33.0242 -96.8411 81° East 281 323 9,200 2,100 Climbing Fort Worth Center
12:39AM 33.0361 -96.7567 80° East 275 316 10,900 1,680 Climbing Fort Worth Center
12:40AM 33.0503 -96.6353 82° East 318 366 12,600 1,620 Climbing Fort Worth Center
12:41AM 33.0661 -96.5036 82° East 374 430 14,200 1,800 Climbing Fort Worth Center
12:42AM 33.0817 -96.3697 82° East 398 458 16,200 2,220 Climbing Fort Worth Center
12:43AM 33.1158 -96.2353 73° East 410 472 18,700 2,100 Climbing Fort Worth Center
12:44AM 33.1544 -96.1058 70° East 416 479 20,500 1,680 Climbing Fort Worth Center
12:45AM 33.1989 -95.9836 66° East 434 499 22,100 1,500 Climbing Fort Worth Center
12:46AM 33.2536 -95.8486 64° Northeast 444 511 23,600 1,440 Climbing Fort Worth Center
12:47AM 33.3083 -95.7108 65° Northeast 449 517 25,000 1,320 Climbing Fort Worth Center
12:48AM 33.3708 -95.5528 65° Northeast 455 524 26,300 1,200 Climbing Fort Worth Center
12:49AM 33.4289 -95.4047 65° Northeast 469 540 27,400 1,380 Climbing Fort Worth Center
12:50AM 33.4911 -95.2514 64° Northeast 488 562 29,100 1,620 Climbing Fort Worth Center
12:51AM 33.5533 -95.1053 63° Northeast 488 562 30,700 1,500 Climbing Fort Worth Center
12:52AM 33.6131 -94.9567 64° Northeast 488 562 32,200 1,500 Climbing Fort Worth Center
12:53AM 33.6728 -94.8078 64° Northeast 488 562 33,700 1,380 Climbing Fort Worth Center
12:54AM 33.7300 -94.6611 65° Northeast 488 562 35,000 1,140 Climbing Fort Worth Center
12:56AM 33.8158 -94.4475 64° Northeast 499 574 36,700 780 Climbing Memphis Center
12:57AM 33.8747 -94.2950 65° Northeast 504 580 37,000 120 Climbing Memphis Center
12:58AM 33.9361 -94.1400 64° Northeast 499 574 37,000  Level Memphis Center
12:59AM 33.9947 -93.9897 65° Northeast 499 574 37,000  Level Memphis Center
01:00AM 34.0533 -93.8394 65° Northeast 499 574 37,000  Level Memphis Center
01:01AM 34.1117 -93.6864 65° Northeast 499 574 37,000  Level Memphis Center
01:02AM 34.1744 -93.5206 65° Northeast 499 574 37,000  Level Memphis Center
01:03AM 34.2347 -93.3669 65° Northeast 499 574 37,000  Level Memphis Center
01:04AM 34.2925 -93.2106 66° East 499 574 37,000  Level Memphis Center
01:05AM 34.3461 -93.0564 67° East 499 574 37,000  Level Memphis Center
01:06AM 34.4056 -92.9047 65° Northeast 499 574 37,000  Level Memphis Center
01:07AM 34.4628 -92.7553 65° Northeast 499 574 37,000  Level Memphis Center
01:08AM 34.5200 -92.5981 66° East 499 574 37,000  Level Memphis Center
01:09AM 34.5769 -92.4381 67° East 504 580 37,000  Level Memphis Center
01:10AM 34.6378 -92.2806 65° Northeast 504 580 37,000  Level Memphis Center
01:11AM 34.7111 -92.1331 59° Northeast 504 580 37,000  Level Memphis Center
01:12AM 34.8044 -92.0111 47° Northeast 496 571 37,000  Level Memphis Center
01:13AM 34.9042 -91.8867 46° Northeast 501 577 37,000  Level Memphis Center
01:14AM 34.9994 -91.7642 46° Northeast 501 577 37,000  Level Memphis Center
01:15AM 35.0967 -91.6386 47° Northeast 501 577 37,000  Level Memphis Center
01:16AM 35.1919 -91.5156 47° Northeast 501 577 37,000  Level Memphis Center
01:17AM 35.2911 -91.3872 47° Northeast 501 577 37,000  Level Memphis Center
01:18AM 35.3858 -91.2611 47° Northeast 501 577 37,000  Level Memphis Center
01:19AM 35.4617 -91.1397 52° Northeast 501 577 37,000  Level Memphis Center
01:20AM 35.5522 -90.9872 54° Northeast 496 571 37,000  Level Memphis Center
01:21AM 35.6406 -90.8500 52° Northeast 501 577 37,000  Level Memphis Center
01:22AM 35.7181 -90.7125 55° Northeast 500 575 37,000  Level Memphis Center
01:23AM 35.8039 -90.5719 53° Northeast 500 575 37,000  Level Memphis Center
01:24AM 35.8875 -90.4339 53° Northeast 500 575 37,000  Level Memphis Center
01:25AM 35.9731 -90.2903 54° Northeast 505 581 37,000  Level Memphis Center
01:26AM 36.0606 -90.1489 53° Northeast 505 581 37,000  Level Memphis Center
01:27AM 36.1478 -90.0075 53° Northeast 505 581 37,000  Level Memphis Center
01:28AM 36.2328 -89.8656 53° Northeast 511 588 37,000  Level Memphis Center
01:29AM 36.3153 -89.7258 54° Northeast 511 588 37,000  Level Memphis Center
01:30AM 36.4042 -89.5808 53° Northeast 511 588 37,000  Level Memphis Center
01:31AM 36.4908 -89.4328 54° Northeast 511 588 37,000  Level Memphis Center
01:32AM 36.5731 -89.3003 52° Northeast 525 604 37,000  Level Memphis Center
01:33AM 36.6550 -89.1517 55° Northeast 525 604 37,000  Level Memphis Center
01:34AM 36.7392 -89.0081 54° Northeast 520 598 37,000  Level Memphis Center
01:35AM 36.8228 -88.8642 54° Northeast 520 598 37,000  Level Memphis Center
01:36AM 36.9086 -88.7172 54° Northeast 520 598 37,000  Level Memphis Center
01:37AM 36.9939 -88.5725 54° Northeast 520 598 37,000  Level Memphis Center
01:38AM 37.0794 -88.4275 53° Northeast 520 598 37,000  Level Memphis Center
01:39AM 37.1603 -88.2800 55° Northeast 520 598 37,000  Level Memphis Center
01:40AM 37.2453 -88.1344 54° Northeast 520 598 37,000  Level Memphis Center
01:42AM 37.4489 -87.7633 55° Northeast 519 597 37,000  Level Indianapolis Center
01:43AM 37.5319 -87.6144 55° Northeast 516 594 37,000  Level Indianapolis Center
01:44AM 37.6150 -87.4644 55° Northeast 515 593 37,000  Level Indianapolis Center
01:45AM 37.6969 -87.3153 55° Northeast 512 589 37,000  Level Indianapolis Center
01:46AM 37.7667 -87.1861 56° Northeast 511 588 37,000  Level Indianapolis Center
01:47AM 37.8475 -87.0375 55° Northeast 514 592 37,000  Level Indianapolis Center
01:48AM 37.9436 -86.8586 56° Northeast 516 594 37,000  Level Indianapolis Center
01:49AM 38.0247 -86.7092 55° Northeast 518 596 37,000 -180 Level Indianapolis Center
01:50AM 38.1050 -86.5575 56° Northeast 521 600 36,700 -1,680 Descending Indianapolis Center
01:51AM 38.1878 -86.4047 55° Northeast 526 605 33,700 -3,300 Descending Indianapolis Center
01:52AM 38.2731 -86.2506 55° Northeast 533 613 30,100 -3,000 Descending Indianapolis Center
01:53AM 38.3653 -86.1053 51° Northeast 529 609 27,800 -2,280 Descending Indianapolis Center
01:54AM 38.4553 -85.9597 52° Northeast 524 603 25,600 -2,520 Descending Indianapolis Center
01:55AM 38.5392 -85.8228 52° Northeast 494 568 22,800 -3,060 Descending Indianapolis Center
01:56AM 38.6186 -85.6883 53° Northeast 477 549 19,500 -3,120 Descending Indianapolis Center
01:57AM 38.6875 -85.5736 52° Northeast 466 536 16,600 -2,880 Descending Indianapolis Center
01:58AM 38.7550 -85.4469 56° Northeast 439 505 13,800 -2,100 Descending Indianapolis Center
01:59AM 38.7969 -85.3056 69° East 426 490 12,400 -1,440 Descending Indianapolis Center
02:00AM 38.8339 -85.1692 71° East 410 472 11,000 -780 Descending Indianapolis Center
02:01AM 38.8742 -85.0150 71° East 383 441 10,900 -300 Descending Indianapolis Center
02:02AM 38.9050 -84.9081 70° East 329 379 10,400 -1,080 Descending Indianapolis Center
02:03AM 38.9308 -84.8078 72° East 308 354 8,800 -1,740 Descending Indianapolis Center
02:04AM 38.9578 -84.7061 71° East 302 348 6,900 -2,100 Descending Indianapolis Center
02:05AM 38.9739 -84.6036 79° East 292 336 4,600 -1,800 Descending Indianapolis Center
02:06AM 38.9886 -84.5083 79° East 282 325 3,300 -900 Descending Indianapolis Center
02:07AM 39.0439 -84.5011 North 276 318 2,800 -600 Descending Indianapolis Center
02:09AM 39.0500 -84.6167 274° West 131 151 1,600 -660 Descending Cincinnati TRACON